sensor_id;sensor_type;location;lat;lon;timestamp;temperature;humidity
56729;DHT22;42612;52.232;7.560;2023-06-26T00:00:41;28.50;46.10
56729;DHT22;42612;52.232;7.560;2023-06-26T00:03:07;28.40;46.10
56729;DHT22;42612;52.232;7.560;2023-06-26T00:05:33;28.40;46.10
56729;DHT22;42612;52.232;7.560;2023-06-26T00:08:00;28.40;46.20
56729;DHT22;42612;52.232;7.560;2023-06-26T00:10:29;28.40;46.30
56729;DHT22;42612;52.232;7.560;2023-06-26T00:12:54;28.30;46.40
56729;DHT22;42612;52.232;7.560;2023-06-26T00:15:20;28.30;46.30
56729;DHT22;42612;52.232;7.560;2023-06-26T00:17:45;28.20;46.30
56729;DHT22;42612;52.232;7.560;2023-06-26T00:20:11;28.20;46.40
56729;DHT22;42612;52.232;7.560;2023-06-26T00:22:37;28.20;46.50
56729;DHT22;42612;52.232;7.560;2023-06-26T00:25:06;28.20;46.50
56729;DHT22;42612;52.232;7.560;2023-06-26T00:27:32;28.20;47.40
56729;DHT22;42612;52.232;7.560;2023-06-26T00:29:58;28.10;46.60
56729;DHT22;42612;52.232;7.560;2023-06-26T00:32:24;28.10;46.70
56729;DHT22;42612;52.232;7.560;2023-06-26T00:34:49;28.00;46.70
56729;DHT22;42612;52.232;7.560;2023-06-26T00:37:15;28.00;46.80
56729;DHT22;42612;52.232;7.560;2023-06-26T00:39:41;28.00;46.90
56729;DHT22;42612;52.232;7.560;2023-06-26T00:42:07;28.00;47.00
56729;DHT22;42612;52.232;7.560;2023-06-26T00:44:33;27.90;47.00
56729;DHT22;42612;52.232;7.560;2023-06-26T00:46:59;27.90;47.20
56729;DHT22;42612;52.232;7.560;2023-06-26T00:49:26;27.90;47.30
56729;DHT22;42612;52.232;7.560;2023-06-26T00:51:52;27.90;47.30
56729;DHT22;42612;52.232;7.560;2023-06-26T00:54:18;27.80;47.30
56729;DHT22;42612;52.232;7.560;2023-06-26T00:56:46;27.80;47.40
56729;DHT22;42612;52.232;7.560;2023-06-26T00:59:13;27.80;47.50
56729;DHT22;42612;52.232;7.560;2023-06-26T01:01:39;27.70;47.50
56729;DHT22;42612;52.232;7.560;2023-06-26T01:04:04;27.70;47.50
56729;DHT22;42612;52.232;7.560;2023-06-26T01:06:32;27.70;47.60
56729;DHT22;42612;52.232;7.560;2023-06-26T01:09:02;27.70;47.80
56729;DHT22;42612;52.232;7.560;2023-06-26T01:11:28;27.70;47.70
56729;DHT22;42612;52.232;7.560;2023-06-26T01:13:54;27.70;47.70
56729;DHT22;42612;52.232;7.560;2023-06-26T01:16:23;27.60;47.70
56729;DHT22;42612;52.232;7.560;2023-06-26T01:18:49;27.60;47.80
56729;DHT22;42612;52.232;7.560;2023-06-26T01:21:15;27.50;47.80
56729;DHT22;42612;52.232;7.560;2023-06-26T01:24:12;27.50;47.80
56729;DHT22;42612;52.232;7.560;2023-06-26T01:26:47;27.50;48.30
56729;DHT22;42612;52.232;7.560;2023-06-26T01:29:15;27.50;47.90
56729;DHT22;42612;52.232;7.560;2023-06-26T01:31:43;27.40;48.00
56729;DHT22;42612;52.232;7.560;2023-06-26T01:34:11;27.40;48.00
56729;DHT22;42612;52.232;7.560;2023-06-26T01:36:38;27.40;48.00
56729;DHT22;42612;52.232;7.560;2023-06-26T01:39:03;27.40;48.20
56729;DHT22;42612;52.232;7.560;2023-06-26T01:41:29;27.30;48.20
56729;DHT22;42612;52.232;7.560;2023-06-26T01:44:23;27.30;48.30
56729;DHT22;42612;52.232;7.560;2023-06-26T01:46:59;27.30;48.70
56729;DHT22;42612;52.232;7.560;2023-06-26T01:49:52;27.20;48.60
56729;DHT22;42612;52.232;7.560;2023-06-26T01:57:47;27.10;49.10
56729;DHT22;42612;52.232;7.560;2023-06-26T02:00:16;27.10;48.60
56729;DHT22;42612;52.232;7.560;2023-06-26T02:02:46;27.10;48.70
56729;DHT22;42612;52.232;7.560;2023-06-26T02:05:12;27.10;48.70
56729;DHT22;42612;52.232;7.560;2023-06-26T02:07:39;27.10;48.70
56729;DHT22;42612;52.232;7.560;2023-06-26T02:10:05;27.00;48.70
56729;DHT22;42612;52.232;7.560;2023-06-26T02:12:31;27.00;48.80
56729;DHT22;42612;52.232;7.560;2023-06-26T02:14:57;27.00;48.70
56729;DHT22;42612;52.232;7.560;2023-06-26T02:17:23;27.00;48.80
56729;DHT22;42612;52.232;7.560;2023-06-26T02:19:48;27.00;48.80
56729;DHT22;42612;52.232;7.560;2023-06-26T02:22:15;27.00;48.80
56729;DHT22;42612;52.232;7.560;2023-06-26T02:24:42;27.00;48.90
56729;DHT22;42612;52.232;7.560;2023-06-26T02:27:09;26.90;48.90
56729;DHT22;42612;52.232;7.560;2023-06-26T02:29:35;26.90;48.80
56729;DHT22;42612;52.232;7.560;2023-06-26T02:32:02;26.90;48.90
56729;DHT22;42612;52.232;7.560;2023-06-26T02:34:27;26.90;48.90
56729;DHT22;42612;52.232;7.560;2023-06-26T02:36:53;26.90;49.00
56729;DHT22;42612;52.232;7.560;2023-06-26T02:39:20;26.90;49.00
56729;DHT22;42612;52.232;7.560;2023-06-26T02:41:46;26.90;49.00
56729;DHT22;42612;52.232;7.560;2023-06-26T02:44:12;26.90;49.00
56729;DHT22;42612;52.232;7.560;2023-06-26T02:46:39;26.80;48.90
56729;DHT22;42612;52.232;7.560;2023-06-26T02:49:04;26.80;48.90
56729;DHT22;42612;52.232;7.560;2023-06-26T02:51:32;26.80;49.00
56729;DHT22;42612;52.232;7.560;2023-06-26T02:54:18;26.70;49.00
56729;DHT22;42612;52.232;7.560;2023-06-26T02:56:43;26.70;49.00
56729;DHT22;42612;52.232;7.560;2023-06-26T02:59:09;26.70;49.10
56729;DHT22;42612;52.232;7.560;2023-06-26T03:01:35;26.70;49.10
56729;DHT22;42612;52.232;7.560;2023-06-26T03:04:01;26.70;49.20
56729;DHT22;42612;52.232;7.560;2023-06-26T03:06:27;26.70;49.20
56729;DHT22;42612;52.232;7.560;2023-06-26T03:08:53;26.60;49.20
56729;DHT22;42612;52.232;7.560;2023-06-26T03:11:19;26.60;49.20
56729;DHT22;42612;52.232;7.560;2023-06-26T03:13:45;26.60;49.20
56729;DHT22;42612;52.232;7.560;2023-06-26T03:16:11;26.60;49.20
56729;DHT22;42612;52.232;7.560;2023-06-26T03:18:36;26.60;49.30
56729;DHT22;42612;52.232;7.560;2023-06-26T03:21:02;26.60;49.30
56729;DHT22;42612;52.232;7.560;2023-06-26T03:23:28;26.60;49.30
56729;DHT22;42612;52.232;7.560;2023-06-26T03:25:53;26.50;49.30
56729;DHT22;42612;52.232;7.560;2023-06-26T03:28:19;26.50;49.30
56729;DHT22;42612;52.232;7.560;2023-06-26T03:30:45;26.50;49.40
56729;DHT22;42612;52.232;7.560;2023-06-26T03:33:11;26.50;49.50
56729;DHT22;42612;52.232;7.560;2023-06-26T03:35:57;26.50;49.50
56729;DHT22;42612;52.232;7.560;2023-06-26T03:38:24;26.40;49.40
56729;DHT22;42612;52.232;7.560;2023-06-26T03:40:51;26.40;49.40
56729;DHT22;42612;52.232;7.560;2023-06-26T03:43:17;26.40;49.40
56729;DHT22;42612;52.232;7.560;2023-06-26T03:45:43;26.40;49.40
56729;DHT22;42612;52.232;7.560;2023-06-26T03:48:09;26.40;49.40
56729;DHT22;42612;52.232;7.560;2023-06-26T03:50:35;26.40;49.40
56729;DHT22;42612;52.232;7.560;2023-06-26T03:53:01;26.40;49.40
56729;DHT22;42612;52.232;7.560;2023-06-26T03:55:26;26.30;49.40
56729;DHT22;42612;52.232;7.560;2023-06-26T03:57:52;26.30;49.40
56729;DHT22;42612;52.232;7.560;2023-06-26T04:00:18;26.30;49.60
56729;DHT22;42612;52.232;7.560;2023-06-26T04:02:43;26.30;49.60
56729;DHT22;42612;52.232;7.560;2023-06-26T04:05:09;26.30;49.50
56729;DHT22;42612;52.232;7.560;2023-06-26T04:07:37;26.30;50.30
56729;DHT22;42612;52.232;7.560;2023-06-26T04:10:03;26.30;49.70
56729;DHT22;42612;52.232;7.560;2023-06-26T04:12:29;26.30;49.70
56729;DHT22;42612;52.232;7.560;2023-06-26T04:14:55;26.30;49.60
56729;DHT22;42612;52.232;7.560;2023-06-26T04:17:20;26.20;49.60
56729;DHT22;42612;52.232;7.560;2023-06-26T04:19:47;26.20;49.60
56729;DHT22;42612;52.232;7.560;2023-06-26T04:22:12;26.30;49.70
56729;DHT22;42612;52.232;7.560;2023-06-26T04:24:38;26.20;49.70
56729;DHT22;42612;52.232;7.560;2023-06-26T04:27:04;26.20;49.70
56729;DHT22;42612;52.232;7.560;2023-06-26T04:29:31;26.20;49.80
56729;DHT22;42612;52.232;7.560;2023-06-26T04:31:56;26.10;49.70
56729;DHT22;42612;52.232;7.560;2023-06-26T04:34:25;26.10;49.80
56729;DHT22;42612;52.232;7.560;2023-06-26T04:36:51;26.10;50.00
56729;DHT22;42612;52.232;7.560;2023-06-26T04:39:17;26.00;49.90
56729;DHT22;42612;52.232;7.560;2023-06-26T04:41:43;26.00;50.10
56729;DHT22;42612;52.232;7.560;2023-06-26T04:44:09;26.00;50.00
56729;DHT22;42612;52.232;7.560;2023-06-26T04:46:36;26.00;50.00
56729;DHT22;42612;52.232;7.560;2023-06-26T04:49:09;26.00;50.10
56729;DHT22;42612;52.232;7.560;2023-06-26T04:51:35;26.00;50.20
56729;DHT22;42612;52.232;7.560;2023-06-26T04:54:12;26.00;50.30
56729;DHT22;42612;52.232;7.560;2023-06-26T04:56:38;26.00;50.60
56729;DHT22;42612;52.232;7.560;2023-06-26T04:59:06;26.00;50.40
56729;DHT22;42612;52.232;7.560;2023-06-26T05:01:32;26.00;50.50
56729;DHT22;42612;52.232;7.560;2023-06-26T05:04:01;26.00;50.60
56729;DHT22;42612;52.232;7.560;2023-06-26T05:06:27;26.00;50.80
56729;DHT22;42612;52.232;7.560;2023-06-26T05:08:53;26.00;50.60
56729;DHT22;42612;52.232;7.560;2023-06-26T05:11:19;26.00;50.70
56729;DHT22;42612;52.232;7.560;2023-06-26T05:13:44;26.00;50.80
56729;DHT22;42612;52.232;7.560;2023-06-26T05:16:10;26.00;50.90
56729;DHT22;42612;52.232;7.560;2023-06-26T05:18:36;26.00;50.90
56729;DHT22;42612;52.232;7.560;2023-06-26T05:21:02;26.10;51.10
56729;DHT22;42612;52.232;7.560;2023-06-26T05:23:32;26.00;51.20
56729;DHT22;42612;52.232;7.560;2023-06-26T05:26:02;26.10;51.50
56729;DHT22;42612;52.232;7.560;2023-06-26T05:28:29;26.10;51.90
56729;DHT22;42612;52.232;7.560;2023-06-26T05:30:57;26.10;51.30
56729;DHT22;42612;52.232;7.560;2023-06-26T05:33:24;26.10;51.40
56729;DHT22;42612;52.232;7.560;2023-06-26T05:35:52;26.00;51.30
56729;DHT22;42612;52.232;7.560;2023-06-26T05:38:19;26.00;51.50
56729;DHT22;42612;52.232;7.560;2023-06-26T05:40:45;26.00;51.30
56729;DHT22;42612;52.232;7.560;2023-06-26T05:43:11;26.00;51.40
56729;DHT22;42612;52.232;7.560;2023-06-26T05:45:37;26.00;51.40
56729;DHT22;42612;52.232;7.560;2023-06-26T05:48:04;26.00;51.40
56729;DHT22;42612;52.232;7.560;2023-06-26T05:50:30;26.00;51.40
56729;DHT22;42612;52.232;7.560;2023-06-26T05:52:56;26.00;51.60
56729;DHT22;42612;52.232;7.560;2023-06-26T05:55:22;26.00;51.40
56729;DHT22;42612;52.232;7.560;2023-06-26T05:57:50;26.00;51.50
56729;DHT22;42612;52.232;7.560;2023-06-26T06:00:16;26.00;51.60
56729;DHT22;42612;52.232;7.560;2023-06-26T06:02:43;26.00;51.50
56729;DHT22;42612;52.232;7.560;2023-06-26T06:05:09;26.00;51.50
56729;DHT22;42612;52.232;7.560;2023-06-26T06:07:35;26.00;51.70
56729;DHT22;42612;52.232;7.560;2023-06-26T06:10:03;26.00;51.60
56729;DHT22;42612;52.232;7.560;2023-06-26T06:12:29;25.90;51.50
56729;DHT22;42612;52.232;7.560;2023-06-26T06:14:56;26.00;51.80
56729;DHT22;42612;52.232;7.560;2023-06-26T06:17:22;25.90;51.80
56729;DHT22;42612;52.232;7.560;2023-06-26T06:19:48;26.00;52.00
56729;DHT22;42612;52.232;7.560;2023-06-26T06:22:14;26.00;52.00
56729;DHT22;42612;52.232;7.560;2023-06-26T06:24:41;26.00;52.00
56729;DHT22;42612;52.232;7.560;2023-06-26T06:27:07;26.00;51.80
56729;DHT22;42612;52.232;7.560;2023-06-26T06:29:33;26.00;51.80
56729;DHT22;42612;52.232;7.560;2023-06-26T06:31:58;26.00;51.90
56729;DHT22;42612;52.232;7.560;2023-06-26T06:34:24;26.00;51.90
56729;DHT22;42612;52.232;7.560;2023-06-26T06:36:50;26.00;52.00
56729;DHT22;42612;52.232;7.560;2023-06-26T06:39:16;26.00;52.00
56729;DHT22;42612;52.232;7.560;2023-06-26T06:41:42;26.00;51.90
56729;DHT22;42612;52.232;7.560;2023-06-26T06:44:07;25.90;52.00
56729;DHT22;42612;52.232;7.560;2023-06-26T06:46:33;26.00;52.20
56729;DHT22;42612;52.232;7.560;2023-06-26T06:48:59;25.90;52.30
56729;DHT22;42612;52.232;7.560;2023-06-26T06:51:26;26.00;52.30
56729;DHT22;42612;52.232;7.560;2023-06-26T06:53:52;25.90;52.30
56729;DHT22;42612;52.232;7.560;2023-06-26T06:56:18;25.90;52.40
56729;DHT22;42612;52.232;7.560;2023-06-26T06:58:43;25.90;52.90
56729;DHT22;42612;52.232;7.560;2023-06-26T07:01:11;25.90;53.10
56729;DHT22;42612;52.232;7.560;2023-06-26T07:03:37;25.90;53.20
56729;DHT22;42612;52.232;7.560;2023-06-26T07:06:03;25.80;53.30
56729;DHT22;42612;52.232;7.560;2023-06-26T07:08:29;25.80;53.50
56729;DHT22;42612;52.232;7.560;2023-06-26T07:10:55;25.70;53.60
56729;DHT22;42612;52.232;7.560;2023-06-26T07:13:24;25.70;53.80
56729;DHT22;42612;52.232;7.560;2023-06-26T07:15:50;25.60;53.90
56729;DHT22;42612;52.232;7.560;2023-06-26T07:18:16;25.50;54.00
56729;DHT22;42612;52.232;7.560;2023-06-26T07:20:42;25.40;54.00
56729;DHT22;42612;52.232;7.560;2023-06-26T07:23:08;25.40;54.10
56729;DHT22;42612;52.232;7.560;2023-06-26T07:25:34;25.40;54.20
56729;DHT22;42612;52.232;7.560;2023-06-26T07:28:00;25.30;54.30
56729;DHT22;42612;52.232;7.560;2023-06-26T07:30:26;25.40;54.70
56729;DHT22;42612;52.232;7.560;2023-06-26T07:32:52;25.30;54.60
56729;DHT22;42612;52.232;7.560;2023-06-26T07:35:17;25.40;54.60
56729;DHT22;42612;52.232;7.560;2023-06-26T07:37:43;25.40;54.70
56729;DHT22;42612;52.232;7.560;2023-06-26T07:40:10;25.40;54.60
56729;DHT22;42612;52.232;7.560;2023-06-26T07:42:36;25.40;54.50
56729;DHT22;42612;52.232;7.560;2023-06-26T07:45:02;25.40;54.40
56729;DHT22;42612;52.232;7.560;2023-06-26T07:47:35;25.40;54.70
56729;DHT22;42612;52.232;7.560;2023-06-26T07:50:01;25.50;54.70
56729;DHT22;42612;52.232;7.560;2023-06-26T07:52:27;25.50;54.70
56729;DHT22;42612;52.232;7.560;2023-06-26T07:54:53;25.60;55.00
56729;DHT22;42612;52.232;7.560;2023-06-26T07:57:19;25.60;54.80
56729;DHT22;42612;52.232;7.560;2023-06-26T07:59:44;25.60;54.70
56729;DHT22;42612;52.232;7.560;2023-06-26T08:02:10;25.70;54.50
56729;DHT22;42612;52.232;7.560;2023-06-26T08:04:36;25.70;54.40
56729;DHT22;42612;52.232;7.560;2023-06-26T08:07:02;25.80;54.30
56729;DHT22;42612;52.232;7.560;2023-06-26T08:09:29;25.80;54.20
56729;DHT22;42612;52.232;7.560;2023-06-26T08:11:56;25.80;54.30
56729;DHT22;42612;52.232;7.560;2023-06-26T08:14:22;25.90;54.10
56729;DHT22;42612;52.232;7.560;2023-06-26T08:16:48;25.90;54.10
56729;DHT22;42612;52.232;7.560;2023-06-26T08:19:15;25.90;54.10
56729;DHT22;42612;52.232;7.560;2023-06-26T08:21:45;26.00;54.30
56729;DHT22;42612;52.232;7.560;2023-06-26T08:24:11;26.00;54.30
56729;DHT22;42612;52.232;7.560;2023-06-26T08:26:38;26.10;54.10
56729;DHT22;42612;52.232;7.560;2023-06-26T08:29:04;26.10;53.60
56729;DHT22;42612;52.232;7.560;2023-06-26T08:31:34;26.20;54.10
56729;DHT22;42612;52.232;7.560;2023-06-26T08:34:01;26.20;53.20
56729;DHT22;42612;52.232;7.560;2023-06-26T08:36:27;26.20;52.90
56729;DHT22;42612;52.232;7.560;2023-06-26T08:38:53;26.10;52.50
56729;DHT22;42612;52.232;7.560;2023-06-26T08:41:19;26.10;52.70
56729;DHT22;42612;52.232;7.560;2023-06-26T08:43:45;26.10;53.00
56729;DHT22;42612;52.232;7.560;2023-06-26T08:46:11;26.20;53.10
56729;DHT22;42612;52.232;7.560;2023-06-26T08:48:37;26.20;53.00
56729;DHT22;42612;52.232;7.560;2023-06-26T08:51:11;26.20;53.10
56729;DHT22;42612;52.232;7.560;2023-06-26T08:56:16;26.30;52.90
56729;DHT22;42612;52.232;7.560;2023-06-26T08:58:44;26.40;52.80
56729;DHT22;42612;52.232;7.560;2023-06-26T09:01:10;26.40;52.30
56729;DHT22;42612;52.232;7.560;2023-06-26T09:03:36;26.50;52.30
56729;DHT22;42612;52.232;7.560;2023-06-26T09:06:02;26.50;51.70
56729;DHT22;42612;52.232;7.560;2023-06-26T09:08:28;26.60;51.40
56729;DHT22;42612;52.232;7.560;2023-06-26T09:10:53;26.60;51.20
56729;DHT22;42612;52.232;7.560;2023-06-26T09:13:19;26.60;51.20
56729;DHT22;42612;52.232;7.560;2023-06-26T09:15:45;26.60;51.20
56729;DHT22;42612;52.232;7.560;2023-06-26T09:18:12;26.60;50.60
56729;DHT22;42612;52.232;7.560;2023-06-26T09:20:38;26.60;50.10
56729;DHT22;42612;52.232;7.560;2023-06-26T09:23:04;26.60;50.00
56729;DHT22;42612;52.232;7.560;2023-06-26T09:25:30;26.60;50.10
56729;DHT22;42612;52.232;7.560;2023-06-26T09:27:56;26.60;50.20
56729;DHT22;42612;52.232;7.560;2023-06-26T09:30:22;26.60;49.80
56729;DHT22;42612;52.232;7.560;2023-06-26T09:32:48;26.70;49.60
56729;DHT22;42612;52.232;7.560;2023-06-26T09:35:19;26.60;49.40
56729;DHT22;42612;52.232;7.560;2023-06-26T09:37:45;26.60;48.80
56729;DHT22;42612;52.232;7.560;2023-06-26T09:40:13;26.60;48.80
56729;DHT22;42612;52.232;7.560;2023-06-26T09:42:39;26.60;49.30
56729;DHT22;42612;52.232;7.560;2023-06-26T09:45:05;26.70;49.60
56729;DHT22;42612;52.232;7.560;2023-06-26T09:47:31;26.70;49.30
56729;DHT22;42612;52.232;7.560;2023-06-26T09:49:57;26.80;48.90
56729;DHT22;42612;52.232;7.560;2023-06-26T09:52:26;26.90;49.40
56729;DHT22;42612;52.232;7.560;2023-06-26T09:55:07;26.90;48.80
56729;DHT22;42612;52.232;7.560;2023-06-26T09:57:34;27.00;47.50
56729;DHT22;42612;52.232;7.560;2023-06-26T10:00:02;27.10;48.10
56729;DHT22;42612;52.232;7.560;2023-06-26T10:02:28;27.20;47.90
56729;DHT22;42612;52.232;7.560;2023-06-26T10:04:54;27.20;47.10
56729;DHT22;42612;52.232;7.560;2023-06-26T10:07:20;27.20;47.20
56729;DHT22;42612;52.232;7.560;2023-06-26T10:09:48;27.20;46.80
56729;DHT22;42612;52.232;7.560;2023-06-26T10:12:31;27.10;46.60
56729;DHT22;42612;52.232;7.560;2023-06-26T10:14:58;27.20;46.10
56729;DHT22;42612;52.232;7.560;2023-06-26T10:17:28;27.20;46.60
56729;DHT22;42612;52.232;7.560;2023-06-26T10:20:14;27.10;46.20
56729;DHT22;42612;52.232;7.560;2023-06-26T10:22:47;27.10;46.80
56729;DHT22;42612;52.232;7.560;2023-06-26T10:25:19;27.20;45.90
56729;DHT22;42612;52.232;7.560;2023-06-26T10:27:57;27.30;46.40
56729;DHT22;42612;52.232;7.560;2023-06-26T10:30:27;27.30;45.80
56729;DHT22;42612;52.232;7.560;2023-06-26T10:32:55;27.30;45.60
56729;DHT22;42612;52.232;7.560;2023-06-26T10:35:21;27.40;45.60
56729;DHT22;42612;52.232;7.560;2023-06-26T10:37:49;27.30;45.30
56729;DHT22;42612;52.232;7.560;2023-06-26T10:40:25;27.30;45.40
56729;DHT22;42612;52.232;7.560;2023-06-26T10:43:06;27.30;45.50
56729;DHT22;42612;52.232;7.560;2023-06-26T10:45:33;27.30;45.50
56729;DHT22;42612;52.232;7.560;2023-06-26T10:48:00;27.40;46.00
56729;DHT22;42612;52.232;7.560;2023-06-26T10:50:28;27.30;45.80
56729;DHT22;42612;52.232;7.560;2023-06-26T10:53:11;27.40;45.80
56729;DHT22;42612;52.232;7.560;2023-06-26T11:01:20;27.40;44.90
56729;DHT22;42612;52.232;7.560;2023-06-26T11:03:48;27.50;45.00
56729;DHT22;42612;52.232;7.560;2023-06-26T11:06:32;27.50;45.10
56729;DHT22;42612;52.232;7.560;2023-06-26T11:09:08;27.50;44.80
56729;DHT22;42612;52.232;7.560;2023-06-26T11:14:23;27.50;44.10
56729;DHT22;42612;52.232;7.560;2023-06-26T11:16:50;27.50;44.70
56729;DHT22;42612;52.232;7.560;2023-06-26T11:19:17;27.50;44.90
56729;DHT22;42612;52.232;7.560;2023-06-26T11:21:44;27.50;45.10
56729;DHT22;42612;52.232;7.560;2023-06-26T11:24:11;27.50;45.00
56729;DHT22;42612;52.232;7.560;2023-06-26T11:26:38;27.50;44.60
56729;DHT22;42612;52.232;7.560;2023-06-26T11:29:05;27.50;44.70
56729;DHT22;42612;52.232;7.560;2023-06-26T11:31:33;27.40;44.60
56729;DHT22;42612;52.232;7.560;2023-06-26T11:34:02;27.40;44.60
56729;DHT22;42612;52.232;7.560;2023-06-26T11:36:30;27.50;44.60
56729;DHT22;42612;52.232;7.560;2023-06-26T11:39:07;27.40;44.50
56729;DHT22;42612;52.232;7.560;2023-06-26T11:41:38;27.50;44.20
56729;DHT22;42612;52.232;7.560;2023-06-26T11:44:05;27.40;44.20
56729;DHT22;42612;52.232;7.560;2023-06-26T11:46:34;27.40;44.30
56729;DHT22;42612;52.232;7.560;2023-06-26T11:49:15;27.40;44.40
56729;DHT22;42612;52.232;7.560;2023-06-26T11:51:41;27.50;43.90
56729;DHT22;42612;52.232;7.560;2023-06-26T11:54:08;27.50;44.40
56729;DHT22;42612;52.232;7.560;2023-06-26T11:56:33;27.50;44.70
56729;DHT22;42612;52.232;7.560;2023-06-26T12:01:37;27.60;43.60
56729;DHT22;42612;52.232;7.560;2023-06-26T12:04:09;27.70;43.20
56729;DHT22;42612;52.232;7.560;2023-06-26T12:06:37;27.70;43.30
56729;DHT22;42612;52.232;7.560;2023-06-26T12:09:06;27.80;43.40
56729;DHT22;42612;52.232;7.560;2023-06-26T12:11:35;27.80;43.10
56729;DHT22;42612;52.232;7.560;2023-06-26T12:14:02;27.90;43.20
56729;DHT22;42612;52.232;7.560;2023-06-26T12:16:30;27.90;43.30
56729;DHT22;42612;52.232;7.560;2023-06-26T12:19:04;28.00;43.60
56729;DHT22;42612;52.232;7.560;2023-06-26T12:24:02;27.90;43.30
56729;DHT22;42612;52.232;7.560;2023-06-26T12:26:28;28.00;43.60
56729;DHT22;42612;52.232;7.560;2023-06-26T12:31:34;28.00;43.30
56729;DHT22;42612;52.232;7.560;2023-06-26T12:34:01;28.10;43.10
56729;DHT22;42612;52.232;7.560;2023-06-26T12:36:27;28.10;43.30
56729;DHT22;42612;52.232;7.560;2023-06-26T12:38:54;28.20;42.80
56729;DHT22;42612;52.232;7.560;2023-06-26T12:41:20;28.20;42.50
56729;DHT22;42612;52.232;7.560;2023-06-26T12:43:49;28.10;42.30
56729;DHT22;42612;52.232;7.560;2023-06-26T12:46:15;28.00;42.20
56729;DHT22;42612;52.232;7.560;2023-06-26T12:48:42;28.00;42.40
56729;DHT22;42612;52.232;7.560;2023-06-26T12:51:11;27.80;42.30
56729;DHT22;42612;52.232;7.560;2023-06-26T12:53:40;27.80;42.50
56729;DHT22;42612;52.232;7.560;2023-06-26T12:56:07;27.80;42.30
56729;DHT22;42612;52.232;7.560;2023-06-26T12:58:35;27.80;42.30
56729;DHT22;42612;52.232;7.560;2023-06-26T13:01:06;27.80;42.40
56729;DHT22;42612;52.232;7.560;2023-06-26T13:03:40;27.80;41.90
56729;DHT22;42612;52.232;7.560;2023-06-26T13:06:06;27.80;42.20
56729;DHT22;42612;52.232;7.560;2023-06-26T13:08:33;28.00;41.90
56729;DHT22;42612;52.232;7.560;2023-06-26T13:10:59;28.00;41.60
56729;DHT22;42612;52.232;7.560;2023-06-26T13:13:25;28.00;41.80
56729;DHT22;42612;52.232;7.560;2023-06-26T13:15:51;28.00;41.60
56729;DHT22;42612;52.232;7.560;2023-06-26T13:18:17;28.10;41.70
56729;DHT22;42612;52.232;7.560;2023-06-26T13:20:42;28.20;41.10
56729;DHT22;42612;52.232;7.560;2023-06-26T13:23:08;28.30;40.60
56729;DHT22;42612;52.232;7.560;2023-06-26T13:25:34;28.30;40.40
56729;DHT22;42612;52.232;7.560;2023-06-26T13:28:00;28.20;40.30
56729;DHT22;42612;52.232;7.560;2023-06-26T13:30:25;28.40;40.80
56729;DHT22;42612;52.232;7.560;2023-06-26T13:32:51;28.50;40.30
56729;DHT22;42612;52.232;7.560;2023-06-26T13:35:17;28.50;40.00
56729;DHT22;42612;52.232;7.560;2023-06-26T13:37:43;28.60;39.90
56729;DHT22;42612;52.232;7.560;2023-06-26T13:40:09;28.60;39.50
56729;DHT22;42612;52.232;7.560;2023-06-26T13:42:35;28.60;39.00
56729;DHT22;42612;52.232;7.560;2023-06-26T13:45:02;28.60;38.80
56729;DHT22;42612;52.232;7.560;2023-06-26T13:47:28;28.60;39.20
56729;DHT22;42612;52.232;7.560;2023-06-26T13:49:54;28.60;38.80
56729;DHT22;42612;52.232;7.560;2023-06-26T13:52:20;28.60;38.80
56729;DHT22;42612;52.232;7.560;2023-06-26T13:54:46;28.60;38.80
56729;DHT22;42612;52.232;7.560;2023-06-26T13:57:12;28.70;38.80
56729;DHT22;42612;52.232;7.560;2023-06-26T13:59:38;28.70;38.60
56729;DHT22;42612;52.232;7.560;2023-06-26T14:02:07;28.70;38.60
56729;DHT22;42612;52.232;7.560;2023-06-26T14:04:33;28.70;38.50
56729;DHT22;42612;52.232;7.560;2023-06-26T14:06:59;28.70;38.30
56729;DHT22;42612;52.232;7.560;2023-06-26T14:09:25;28.70;38.60
56729;DHT22;42612;52.232;7.560;2023-06-26T14:11:51;28.60;38.40
56729;DHT22;42612;52.232;7.560;2023-06-26T14:14:16;28.60;38.40
56729;DHT22;42612;52.232;7.560;2023-06-26T14:16:42;28.50;38.40
56729;DHT22;42612;52.232;7.560;2023-06-26T14:19:08;28.60;39.00
56729;DHT22;42612;52.232;7.560;2023-06-26T14:21:41;28.60;39.00
56729;DHT22;42612;52.232;7.560;2023-06-26T14:24:07;28.70;38.70
56729;DHT22;42612;52.232;7.560;2023-06-26T14:26:32;28.80;38.60
56729;DHT22;42612;52.232;7.560;2023-06-26T14:28:59;28.90;38.90
56729;DHT22;42612;52.232;7.560;2023-06-26T14:31:26;28.90;37.60
56729;DHT22;42612;52.232;7.560;2023-06-26T14:33:52;29.00;37.50
56729;DHT22;42612;52.232;7.560;2023-06-26T14:36:17;29.00;37.10
56729;DHT22;42612;52.232;7.560;2023-06-26T14:38:44;28.90;37.10
56729;DHT22;42612;52.232;7.560;2023-06-26T14:41:10;28.90;37.00
56729;DHT22;42612;52.232;7.560;2023-06-26T14:43:36;28.90;37.00
56729;DHT22;42612;52.232;7.560;2023-06-26T14:46:02;28.80;37.20
56729;DHT22;42612;52.232;7.560;2023-06-26T14:48:28;28.80;37.60
56729;DHT22;42612;52.232;7.560;2023-06-26T14:50:53;28.80;37.30
56729;DHT22;42612;52.232;7.560;2023-06-26T14:53:19;28.80;37.00
56729;DHT22;42612;52.232;7.560;2023-06-26T14:55:45;28.90;37.00
56729;DHT22;42612;52.232;7.560;2023-06-26T14:58:10;28.80;37.10
56729;DHT22;42612;52.232;7.560;2023-06-26T15:00:36;28.80;37.30
56729;DHT22;42612;52.232;7.560;2023-06-26T15:03:02;28.80;37.00
56729;DHT22;42612;52.232;7.560;2023-06-26T15:05:27;28.80;36.90
56729;DHT22;42612;52.232;7.560;2023-06-26T15:07:53;28.80;36.50
56729;DHT22;42612;52.232;7.560;2023-06-26T15:10:19;28.90;36.60
56729;DHT22;42612;52.232;7.560;2023-06-26T15:12:45;29.00;36.70
56729;DHT22;42612;52.232;7.560;2023-06-26T15:15:10;29.00;36.40
56729;DHT22;42612;52.232;7.560;2023-06-26T15:17:36;29.00;36.00
56729;DHT22;42612;52.232;7.560;2023-06-26T15:20:02;29.10;36.00
56729;DHT22;42612;52.232;7.560;2023-06-26T15:22:28;29.00;35.50
56729;DHT22;42612;52.232;7.560;2023-06-26T15:24:54;28.90;35.40
56729;DHT22;42612;52.232;7.560;2023-06-26T15:27:20;28.80;35.70
56729;DHT22;42612;52.232;7.560;2023-06-26T15:29:46;28.80;35.60
56729;DHT22;42612;52.232;7.560;2023-06-26T15:32:11;28.60;35.80
56729;DHT22;42612;52.232;7.560;2023-06-26T15:34:37;28.50;36.10
56729;DHT22;42612;52.232;7.560;2023-06-26T15:37:03;28.40;36.20
56729;DHT22;42612;52.232;7.560;2023-06-26T15:39:29;28.40;36.70
56729;DHT22;42612;52.232;7.560;2023-06-26T15:41:55;28.40;36.30
56729;DHT22;42612;52.232;7.560;2023-06-26T15:44:20;28.50;36.40
56729;DHT22;42612;52.232;7.560;2023-06-26T15:46:46;28.50;36.20
56729;DHT22;42612;52.232;7.560;2023-06-26T15:49:12;28.50;36.20
56729;DHT22;42612;52.232;7.560;2023-06-26T15:51:37;28.50;36.10
56729;DHT22;42612;52.232;7.560;2023-06-26T15:54:04;28.50;36.30